Terminal Aerodrome Forecast
Issued by NWS

Home | Current Version | Previous Version | Text Only | Print | Product List | Glossary On
Versions: 1 2 3 4 5 6 7 8 9 10 11
000
FTUS46 KPDT 290700 AAA
TAFPSC
TAF AMD
KPSC 290706Z 2907/3006 34004KT 6SM -SHSN SCT020 OVC050
     FM291200 33012G22KT P6SM SCT020 BKN040
     FM291800 35017G27KT P6SM SCT040
     FM300200 35015KT P6SM FEW050=

USA.gov is the U.S. government's official web portal to all federal, state and local government web resources and services.